Timeline UpdatesTrip UpdatesNews PostsPvt PostsTravel TipsAdmin PostsConv PostsFollowed PostsChat RequestsBlog PostsPNR Posts

Disclaimer
Search
 
 
Thu Apr 24, 2014 01:44:13 ISTHomeTrainsΣChainsAtlasPNRForumGalleryNewsFAQTripsMembersLoginFeedback
No Recent News for this Train
Other Trains in the News **new
Latest...
..
Mon Feb 24, 2014 (09:24PM)
⇐ Return Journey: Train# 13201

13202/Mumbai LTT - Rajendra Nagar Patna Express

Nov 15 2013 (12:22PM)
Change Departure Station:
Change Arrival Station:
Post a Train Travel TipPost a Train Travel Tip **new
Post a Comment/Question/Picture/VideoPost a Comment/Question/Picture/Video
Inaugural Run
Thu Jan 01, 1998
Pantry/Catering
✓ Pantry Car Avbl
✓ Catering Avbl
RSA - Rake Sharing
NO RSA
Rake/Coach Composition
LOCO-SLR-GS-GS-A1-AB1-B2-B1-PC-S12-S11-S10-S9-S8-S7-S6-S5-S4-S3-S2-S1-GS-GS-GS-SLR
Loco
LTT-ET:-ET/BSL WAM-4/WAP-4 ET-MGS :-ET WDM 3A/3D MGS-RJPB:-MGS/CNB WAM-4/WAG-9
News    PNR    Forum    Time-Table    Availability    Fare Chart    Map    Arr/Dep History    Trips    Gallery    ΣChains    X/O    Timeline    
Travel Time: 35h 40m    61 halts    Distance: 1695 km    Avg Speed: 47 km/hr
Type: Mail/Express
Zone: ECR/East Central
Departs @ 22:15 (Avg 2m late)
Platform# 5
SMTWTFS
Mumbai Lokmanya Tilak Terminus/LTT 
Arrives @ 09:55 +2 nights (Avg 2h 13m late)
Platform# ???
SMTWTFS
Rajendra Nagar Bihar/RJPB 

61 halts. 242 intermediate Stations between Mumbai Lokmanya Tilak Terminus and Rajendra Nagar Bihar

Show ALL intermediate Stations  Show Old Time-Table

#CodeStation NameX/OArrivesAvgDepartsAvgHaltPFDay#KmSpeedElevZoneAddress
1LTT»Mumbai Lokmanya Tilak Terminus (5)»  -22:15+2510.0557mCRMumbai, Maharashtra
2KYNKalyan Junction (8)X  22:55+2223:00+245m4136.74710mCRKalyan 421301, Maharashtra
3IGPIgatpuri (4)X  00:45+2200:50+275m--2118.563589mCRIgatpuri 422403, Maharashtra
4DVLDevlali (3)X  01:33+3101:35+342m12163.434561mCRDist. Nashik 422401, Maharashtra
5NKNasik Road (3)X  01:45+3101:50+335m22169.167563mCRNashik 422101, Maharashtra
6NRNiphad (3)X  02:18+3002:20+292m--2200.678550mCRNashik, Maharashtra
7LSLasalgaon (3)X  02:33+3002:35+312m--2217.459592mCRLasalgaon, Maharashtra
8MMRManmad Junction (6)X  03:00+2803:05+295m22241.990580mCRManmad 423104, Maharashtra
9NGNNandgaon (3)X  03:22+3203:25+313m--2267.390476mCRNandgaon, Maharashtra
10CSNChalisgaon Junction (3)X  03:53+3403:55+342m--2309.496352mCRChalisgaon 424101, Maharashtra
11JLJalgaon Junction (4)X  04:53+4004:55+412m32402.058213mCRJalgaon 425001, Maharashtra
12BSLBhusaval Junction (8)X  05:20+4205:30+4610m52426.162208mCRBhusaval 425201, Maharashtra
13RVRaver (2)  06:03+4506:05+452m--2460.467242mCRJalgaon, Maharashtra
14BAUBurhanpur (2)X  06:23+4606:25+462m22480.656269mCRBurhanpur, Madhya Pradesh
15NPNRNepanagar (2)X  06:53+4006:55+402m--2506.834289mCRState Highway 27, Madhya Pradesh
16KNWKhandwa Junction (5)X  08:10+608:15+95m--2549.573310mCRKhandwa, Madhya Pradesh
17TLVTalvadiya (2)  08:28+1808:30+232m--2565.299308mWCRKhandwa, Madhya Pradesh
18CAERChhanera (2)X  08:48+3008:50+322m--2594.980283mWCRChhanera, Madhya Pradesh
19KKNKhirkiya (2)X  09:13+3209:15+342m22625.690281mWCRSH 15, Madhya Pradesh
20HDHarda (3)X  09:36+3909:38+392m--2657.185289mWCRHarda, Madhya Pradesh
21TBNTimarni (2)X  09:48+4309:50+452m--2671.250308mWCRTimarni, Madhya Pradesh
22BPFBanapura (2)X  10:24+3410:26+352m--2699.431314mWCRBanapura, Madhya Pradesh
23ETItarsi Junction (7)X11:30+911:40+1810m--2732.972329mWCRItarsi 461111, Madhya Pradesh
24BGTABagra Tawa (2)X  12:02+3812:04+382m22759.336338mWCRBagra Tawa, Madhya Pradesh
25SGPSohagpur (2)  12:43+2012:45+222m22782.462340mWCRSohagpur, Madhya Pradesh
26PPIPipariya (3)  13:02+2013:04+222m12800.181338mWCRPiparia, Madhya Pradesh
27BKHBankhedi (2)X  13:18+2713:20+282m22819.090351mWCRBankheri, Madhya Pradesh
28SCKRSalichauka Road (2)  13:31+3413:33+342m--2835.676355mWCRGadarwara, Madhya Pradesh
29GARGadarwara (2)X  13:44+3613:46+372m12849.584352mWCRNarsinghpur, Madhya Pradesh
30KYKareli (2)  14:06+4614:08+472m12877.549361mWCRKareli, Madhya Pradesh
31NUNarsinghpur (2)X  14:28+4314:30+432m12893.878365mWCRNarsimhapur, Madhya Pradesh
32SRIDShridham (3)  14:54+4614:56+462m22924.978373mWCRShridham, Madhya Pradesh
33MMLMadan Mahal (3)  15:34+4515:36+452m22974.623428mWCRJabalpur, Madhya Pradesh
34JBPJabalpur Junction (7)  15:45+4715:55+5010m32978.172416mWCRJabalpur, Madhya Pradesh
35SHRSihora Road (2)X  16:27+5316:29+542m--21016.576388mWCRJabalpur, Madhya Pradesh
36KTEKatni Junction (6)X  17:10+5717:15+585m--21068.769387mWCRKatni, Madhya Pradesh
37JKEJukehi (3)  17:30+1:0017:32+1:012m--21086.188402mWCRJukehi, Madhya Pradesh
38MYRMaihar (3)  18:03+1:0218:05+1:032m--21131.747353mWCRMaihar Railway Station, Madhya Pradesh
39STASatna Junction (3)X  18:50+5219:00+5510m221167.171322mWCRSatna, Madhya Pradesh
40JTWJaitwar (2)  19:17+5919:19+592m--21187.254321mWCRJaitwar, Madhya Pradesh
41MJGMajhagawanX  19:42+5919:44+1:002m--21207.924343mWCRMajhgawa, Madhya Pradesh
42MKPManikpur Junction (4)X  21:15+2121:20+225m--21244.875250mNCRManikpur, Uttar Pradesh
43DBRDabhaura (2)X  21:38+2421:40+242m--21267.372201mNCRDabhaura, Uttar Pradesh
44SRJShankargarh (3)X  22:07+2722:09+272m--21299.837132mNCRShankargarh, Uttar Pradesh
45COIChheoki Junction (3)O  23:10+5223:30+1:5620m--21337.12596mNCRDist.-Allahabad, Uttar Pradesh
46MNFManda RoadX  01:20+1:1101:22+1:182m--31382.77593mNCRNH 76, Uttar Pradesh
47BDLVindhyachal (3)X  01:44+1:4101:46+1:432m--31410.22688mNCRMirzapur, Uttar Pradesh
48MZPMirzapur (3)X  02:03+1:4502:05+1:502m--31417.55788mNCRMirzapur, Uttar Pradesh
49CARChunar Junction (5)XO  02:38+2:0102:40+2:022m331448.83085mNCRChunar Junction, Uttar Pradesh
50ARWAhraura RoadX  03:16+1:5103:18+1:562m--31466.82285mNCRDist. Mirzapur, Uttar Pradesh
51MGSMughal Sarai Junction (8)X  03:55+2:1304:10+2:0915m--31480.67483mECRMughalsarai 232101, Uttar Pradesh
52ZNAZamania  04:46+2:2204:48+2:232m--31524.86277mECRGhazipur, Uttar Pradesh
53DLNDildarnagar Junction (2)X  05:01+2:2205:03+2:232m--31538.310772mECRDildarnagar, Uttar Pradesh
54GMRGahmar (2)  05:12+2:2905:14+2:322m--31554.37968mECRDistt: Ghazipur, Uttar Pradesh
55CSAChausa (2)X  05:21+2:3705:23+2:412m--31563.65568mECRState Highway 14, Bihar
56BXRBuxar (3)XO  05:35+2:4105:37+2:432m--31574.53167mECRBuxar, Bihar
57BEABihiya  07:07+2:0007:09+2:022m--31621.62967mECRBehea, Bihar
58ARAAra Junction (3)  07:53+1:4507:55+1:472m--31643.03463mECRarrah( 06182-233411), Bihar
59BTABihta (2)X  08:34+1:4408:36+1:472m--31665.24262mECRBihta, Bihar
60SDESadisopur (2)  08:42+1:4708:44+1:472m--31669.44164mECRSadisopur, Bihar
61DNRDanapur (5)09:03+1:4709:05+1:562m--31682.52358mECRKhagaul, Bihar
62PNBEPatna Junction (10)  09:30+1:5809:40+2:1410m331691.91057mECRPatna 800001, Bihar
63RJPB•Rajendra Nagar Bihar (4)•  09:55+2:13---31694.5-55mECRPatna 800001, Bihar
Scroll to Top
Scroll to Bottom